Time;durP1;ratioP1;P1;durP2;ratioP2;P2;SDS_P1;SDS_P2;PMS_P1;PMS_P2;Temp;Humidity;BMP_temperature;BMP_pressure;BME280_temperature;BME280_humidity;BME280_pressure;Samples;Min_cycle;Max_cycle;Signal;HPM_P1;HPM_P2
2023/06/16 00:00:11;;;;;;;2.10;1.83;;;20.50;95.30;;;;;;5031391;28;20025;-39
2023/06/16 00:02:41;;;;;;;3.42;1.90;;;20.50;95.30;;;;;;5031512;28;20381;-36
2023/06/16 00:05:08;;;;;;;2.75;2.22;;;20.50;95.30;;;;;;5031066;28;20049;-37
2023/06/16 00:07:34;;;;;;;2.78;1.90;;;20.50;95.30;;;;;;5031802;28;20032;-37
2023/06/16 00:10:00;;;;;;;2.38;1.98;;;20.50;95.30;;;;;;5030934;28;20029;-38
2023/06/16 00:12:26;;;;;;;2.28;1.98;;;20.50;95.30;;;;;;5031085;28;20027;-36
2023/06/16 00:14:51;;;;;;;2.65;2.08;;;20.50;95.30;;;;;;5031013;28;20384;-40
2023/06/16 00:17:20;;;;;;;2.85;2.30;;;20.50;95.30;;;;;;5031551;28;20485;-34
2023/06/16 00:19:47;;;;;;;2.53;2.25;;;20.50;95.30;;;;;;5031268;28;20030;-35
2023/06/16 00:22:12;;;;;;;2.70;1.73;;;20.50;95.30;;;;;;5030768;28;20028;-41
2023/06/16 00:24:38;;;;;;;3.13;1.90;;;20.50;95.40;;;;;;5030886;28;20029;-36
2023/06/16 00:27:04;;;;;;;3.70;2.47;;;20.50;95.40;;;;;;5031243;28;20025;-34
2023/06/16 00:29:30;;;;;;;1.98;1.73;;;20.50;95.40;;;;;;5031222;28;20108;-39
2023/06/16 00:31:56;;;;;;;2.42;2.08;;;20.50;95.40;;;;;;5031562;28;20537;-40
2023/06/16 00:34:22;;;;;;;2.28;2.08;;;20.50;95.70;;;;;;5031438;28;20054;-38
2023/06/16 00:36:47;;;;;;;3.63;2.38;;;20.50;95.40;;;;;;5030734;28;20118;-40
2023/06/16 00:39:13;;;;;;;3.22;2.35;;;20.50;95.40;;;;;;5030823;28;20385;-40
2023/06/16 00:41:38;;;;;;;4.18;2.33;;;20.50;95.40;;;;;;5031202;28;20021;-36
2023/06/16 00:44:04;;;;;;;2.55;1.80;;;20.50;95.40;;;;;;5031250;28;20026;-34
2023/06/16 00:46:33;;;;;;;2.72;2.20;;;20.50;95.40;;;;;;5031011;28;20025;-37
2023/06/16 00:48:58;;;;;;;2.83;2.20;;;20.50;95.40;;;;;;5030773;28;20502;-42
2023/06/16 00:51:26;;;;;;;3.55;2.20;;;20.50;95.40;;;;;;5032777;28;20104;-37
2023/06/16 00:53:54;;;;;;;2.20;1.90;;;20.50;95.40;;;;;;5034742;28;20103;-37
2023/06/16 00:56:21;;;;;;;3.58;1.85;;;20.50;95.40;;;;;;5034378;28;20040;-36
2023/06/16 00:58:52;;;;;;;2.20;1.90;;;20.50;95.40;;;;;;5034255;28;20026;-40
2023/06/16 01:01:18;;;;;;;2.53;2.20;;;20.50;95.40;;;;;;5035479;28;20032;-40
2023/06/16 01:03:46;;;;;;;2.28;1.90;;;20.50;95.40;;;;;;5036060;28;20044;-36
2023/06/16 01:06:29;;;;;;;2.25;1.92;;;20.50;95.40;;;;;;5035261;28;20328;-38
2023/06/16 01:09:05;;;;;;;2.88;2.05;;;20.40;95.40;;;;;;5034015;28;20500;-37
2023/06/16 01:11:43;;;;;;;2.38;1.90;;;20.50;95.50;;;;;;5033977;28;20029;-37
2023/06/16 01:14:14;;;;;;;3.90;2.17;;;20.50;95.50;;;;;;5034006;28;20025;-37
2023/06/16 01:16:42;;;;;;;3.10;2.33;;;20.50;95.50;;;;;;5033959;28;20022;-34
2023/06/16 01:19:17;;;;;;;2.63;2.28;;;20.50;95.50;;;;;;5033977;28;20049;-36
2023/06/16 01:22:09;;;;;;;2.30;2.08;;;20.40;95.50;;;;;;5034165;28;20481;-38
2023/06/16 01:24:35;;;;;;;2.63;2.40;;;20.40;95.50;;;;;;5033782;28;20083;-40
2023/06/16 01:27:04;;;;;;;3.97;2.33;;;20.50;95.50;;;;;;5016095;28;20017;-36
2023/06/16 01:29:36;;;;;;;2.40;2.20;;;20.40;95.50;;;;;;5034453;28;20084;-40
2023/06/16 01:32:05;;;;;;;2.10;1.80;;;20.40;95.50;;;;;;5034547;28;20022;-39
2023/06/16 01:34:33;;;;;;;3.38;2.33;;;20.40;95.50;;;;;;5034183;28;20140;-40
2023/06/16 01:37:00;;;;;;;2.95;2.03;;;20.40;95.50;;;;;;5033449;28;20384;-34
2023/06/16 01:39:27;;;;;;;2.97;2.35;;;20.40;95.50;;;;;;5033594;28;20049;-38
2023/06/16 01:41:54;;;;;;;2.30;2.10;;;20.40;95.50;;;;;;5033344;28;20076;-37
2023/06/16 01:44:21;;;;;;;2.47;2.25;;;20.40;95.50;;;;;;5033513;28;20022;-39
2023/06/16 01:46:47;;;;;;;2.45;2.20;;;20.40;95.60;;;;;;5033359;28;20021;-40
2023/06/16 01:49:13;;;;;;;3.17;2.13;;;20.40;95.60;;;;;;5033798;28;20480;-39
2023/06/16 01:51:39;;;;;;;2.67;2.42;;;20.30;95.60;;;;;;5033155;28;20031;-36
2023/06/16 01:54:05;;;;;;;2.50;2.20;;;20.40;95.60;;;;;;5033352;28;20097;-34
2023/06/16 01:56:31;;;;;;;3.08;1.90;;;20.40;95.60;;;;;;5033265;28;20033;-37
2023/06/16 01:58:57;;;;;;;4.20;2.22;;;20.30;95.60;;;;;;5033160;28;20033;-37
2023/06/16 02:01:31;;;;;;;3.33;2.40;;;20.40;95.70;;;;;;5032992;28;20035;-37
2023/06/16 02:03:59;;;;;;;2.83;2.25;;;20.40;95.70;;;;;;5032270;28;20029;-37
2023/06/16 02:06:30;;;;;;;2.35;2.15;;;20.30;95.60;;;;;;5032966;28;20108;-38
2023/06/16 02:08:59;;;;;;;4.07;2.20;;;20.40;95.70;;;;;;5032882;28;20029;-34
2023/06/16 02:11:25;;;;;;;3.10;2.10;;;20.40;95.70;;;;;;5033118;28;20021;-34
2023/06/16 02:13:52;;;;;;;3.03;2.40;;;20.40;95.70;;;;;;5033565;28;20018;-39
2023/06/16 02:16:19;;;;;;;2.60;2.20;;;20.40;95.70;;;;;;5032829;28;20032;-37
2023/06/16 02:18:45;;;;;;;3.03;2.40;;;20.40;95.70;;;;;;5032654;28;20060;-36
2023/06/16 02:21:10;;;;;;;2.42;2.20;;;20.30;95.70;;;;;;5032830;28;20100;-40
2023/06/16 02:23:36;;;;;;;3.03;2.28;;;20.30;95.70;;;;;;5032823;28;20121;-36
2023/06/16 02:26:02;;;;;;;2.78;2.38;;;20.30;95.70;;;;;;5016082;28;20105;-36
2023/06/16 02:28:27;;;;;;;2.88;2.10;;;20.30;95.70;;;;;;5033713;28;20028;-39
2023/06/16 02:30:53;;;;;;;2.58;2.25;;;20.30;95.80;;;;;;5032437;28;20021;-37
2023/06/16 02:33:20;;;;;;;2.95;2.42;;;20.30;95.70;;;;;;5032484;28;20022;-36
2023/06/16 02:35:45;;;;;;;3.63;2.22;;;20.30;95.80;;;;;;5032962;28;20032;-40
2023/06/16 02:38:11;;;;;;;3.63;2.20;;;20.30;95.80;;;;;;5032415;28;20017;-40
2023/06/16 02:40:37;;;;;;;2.40;2.20;;;20.30;95.80;;;;;;5033156;28;20051;-34
2023/06/16 02:43:03;;;;;;;2.95;2.30;;;20.30;95.80;;;;;;5033558;28;20033;-37
2023/06/16 02:45:28;;;;;;;4.20;2.45;;;20.30;95.70;;;;;;5032239;28;20112;-38
2023/06/16 02:47:54;;;;;;;3.25;2.22;;;20.30;95.70;;;;;;5032307;28;20036;-37
2023/06/16 02:50:21;;;;;;;3.42;2.50;;;20.30;95.80;;;;;;5032059;28;20018;-37
2023/06/16 02:52:48;;;;;;;3.05;2.22;;;20.20;95.70;;;;;;5032880;28;20022;-37
2023/06/16 02:55:15;;;;;;;3.70;2.35;;;20.30;95.80;;;;;;5034286;28;20028;-42
2023/06/16 02:57:41;;;;;;;3.72;2.47;;;20.30;95.80;;;;;;5032020;28;20031;-37
2023/06/16 03:00:10;;;;;;;3.22;2.13;;;20.30;95.80;;;;;;5031734;28;20030;-41
2023/06/16 03:02:36;;;;;;;2.65;2.22;;;20.20;95.80;;;;;;5014952;28;20112;-36
2023/06/16 03:05:03;;;;;;;3.78;2.53;;;20.30;95.80;;;;;;5032791;28;20104;-40
2023/06/16 03:07:38;;;;;;;2.95;2.47;;;20.20;95.80;;;;;;5033986;28;20049;-38
2023/06/16 03:10:08;;;;;;;3.13;2.20;;;20.20;95.80;;;;;;5032738;28;20384;-34
2023/06/16 03:12:34;;;;;;;2.67;2.30;;;20.20;95.80;;;;;;5031789;28;20087;-42
2023/06/16 03:15:00;;;;;;;2.88;2.20;;;20.20;95.80;;;;;;5031785;28;20057;-37
2023/06/16 03:17:26;;;;;;;2.10;1.90;;;20.20;95.80;;;;;;5031646;28;20021;-40
2023/06/16 03:19:51;;;;;;;2.60;2.33;;;20.20;95.80;;;;;;5032598;28;20029;-38
2023/06/16 03:22:17;;;;;;;2.38;2.15;;;20.20;95.80;;;;;;5031646;28;20447;-42
2023/06/16 03:24:44;;;;;;;4.78;2.53;;;20.20;95.80;;;;;;5032429;28;20022;-42
2023/06/16 03:27:10;;;;;;;3.08;2.50;;;20.20;95.70;;;;;;5032528;28;20025;-37
2023/06/16 03:29:36;;;;;;;2.40;2.20;;;20.20;95.70;;;;;;5031962;28;20029;-39
2023/06/16 03:32:03;;;;;;;2.55;2.30;;;20.20;95.70;;;;;;5031325;28;20028;-37
2023/06/16 03:34:29;;;;;;;6.70;2.35;;;20.20;95.80;;;;;;5031551;28;20025;-35
2023/06/16 03:36:56;;;;;;;3.58;2.15;;;20.20;95.80;;;;;;5031432;28;20054;-36
2023/06/16 03:39:22;;;;;;;3.50;2.60;;;20.20;95.80;;;;;;5032442;28;20037;-36
2023/06/16 03:41:47;;;;;;;3.67;2.40;;;20.20;95.80;;;;;;5031442;28;20022;-34
2023/06/16 03:44:13;;;;;;;4.85;2.45;;;20.20;95.80;;;;;;5031901;28;20033;-39
2023/06/16 03:46:38;;;;;;;2.72;2.35;;;20.20;95.80;;;;;;5031934;28;20033;-39
2023/06/16 03:49:04;;;;;;;4.18;2.40;;;20.20;95.80;;;;;;5031296;28;20057;-39
2023/06/16 03:51:33;;;;;;;3.72;2.38;;;20.20;95.80;;;;;;5031635;28;20018;-41
2023/06/16 03:53:59;;;;;;;2.47;2.08;;;20.10;96.00;;;;;;5031299;28;20017;-40
2023/06/16 03:56:25;;;;;;;2.88;2.42;;;20.10;95.80;;;;;;5031132;28;20051;-38
2023/06/16 03:58:51;;;;;;;3.75;2.53;;;20.10;95.80;;;;;;5031142;28;20493;-43
2023/06/16 04:01:20;;;;;;;4.43;2.50;;;20.10;95.80;;;;;;5030958;28;20053;-35
2023/06/16 04:03:49;;;;;;;3.47;2.65;;;20.10;95.80;;;;;;5031356;28;20435;-36
2023/06/16 04:06:15;;;;;;;3.30;2.40;;;20.10;95.80;;;;;;5031079;28;20393;-40
2023/06/16 04:08:41;;;;;;;3.17;2.58;;;20.20;95.80;;;;;;5031481;28;20551;-38
2023/06/16 04:11:07;;;;;;;3.00;2.60;;;20.10;95.70;;;;;;5030824;28;20022;-36
2023/06/16 04:13:32;;;;;;;4.35;2.70;;;20.10;95.70;;;;;;5031726;28;20049;-41
2023/06/16 04:15:58;;;;;;;4.63;2.70;;;20.10;95.70;;;;;;5031799;28;20033;-37
2023/06/16 04:18:24;;;;;;;3.22;2.45;;;20.10;95.80;;;;;;5030979;28;20025;-36
2023/06/16 04:20:50;;;;;;;3.50;2.40;;;20.10;95.80;;;;;;5030810;28;20032;-38
2023/06/16 04:23:16;;;;;;;2.65;2.20;;;20.10;95.80;;;;;;5031195;28;20037;-37
2023/06/16 04:25:42;;;;;;;5.18;2.63;;;20.10;95.80;;;;;;5032200;28;20029;-36
2023/06/16 04:28:13;;;;;;;3.17;2.40;;;20.10;95.80;;;;;;5035291;28;20013;-33
2023/06/16 04:30:40;;;;;;;4.45;2.70;;;20.10;95.80;;;;;;5034991;28;20029;-35
2023/06/16 04:33:06;;;;;;;4.97;2.60;;;20.10;95.70;;;;;;5035126;28;20143;-34
2023/06/16 04:35:34;;;;;;;3.75;2.58;;;20.10;95.80;;;;;;5035318;28;20100;-40
2023/06/16 04:38:00;;;;;;;4.07;2.60;;;20.10;95.80;;;;;;5034545;28;20017;-36
2023/06/16 04:40:32;;;;;;;3.70;2.53;;;20.10;95.80;;;;;;5035084;28;20377;-42
2023/06/16 04:42:57;;;;;;;2.70;2.40;;;20.10;95.80;;;;;;5034746;28;20087;-36
2023/06/16 04:45:24;;;;;;;4.30;2.55;;;20.10;95.80;;;;;;5035391;28;20034;-38
2023/06/16 04:47:50;;;;;;;3.03;2.65;;;20.10;95.80;;;;;;5034556;28;20033;-39
2023/06/16 04:50:16;;;;;;;6.18;2.63;;;20.10;95.80;;;;;;5034591;28;20032;-36
2023/06/16 04:52:42;;;;;;;2.97;2.67;;;20.10;95.80;;;;;;5034858;28;20029;-42
2023/06/16 04:55:08;;;;;;;3.05;2.40;;;20.10;95.80;;;;;;5034533;28;20051;-33
2023/06/16 04:57:35;;;;;;;2.78;2.47;;;20.10;95.80;;;;;;5035126;28;20423;-34
2023/06/16 05:00:06;;;;;;;4.30;2.17;;;20.10;95.80;;;;;;5034227;28;20025;-40
2023/06/16 05:02:32;;;;;;;3.67;2.80;;;20.10;95.80;;;;;;5035114;28;20061;-36
2023/06/16 05:04:58;;;;;;;3.28;2.70;;;20.10;95.80;;;;;;5034175;28;20029;-37
2023/06/16 05:07:23;;;;;;;3.28;2.53;;;20.10;95.80;;;;;;5034434;28;20104;-34
2023/06/16 05:09:49;;;;;;;4.53;2.42;;;20.10;95.80;;;;;;5034128;28;20029;-36
2023/06/16 05:12:14;;;;;;;4.40;2.10;;;20.10;95.80;;;;;;5033951;28;20026;-36
2023/06/16 05:14:40;;;;;;;3.33;2.40;;;20.10;95.80;;;;;;5034019;28;20029;-37
2023/06/16 05:17:06;;;;;;;2.67;2.47;;;20.00;95.80;;;;;;5034477;28;20029;-40
2023/06/16 05:19:34;;;;;;;3.15;2.30;;;20.10;95.80;;;;;;5034206;28;20049;-34
2023/06/16 05:22:01;;;;;;;5.20;2.53;;;20.10;95.80;;;;;;5033663;28;20556;-33
2023/06/16 05:24:26;;;;;;;3.55;2.50;;;20.10;95.80;;;;;;5033984;28;20021;-42
2023/06/16 05:26:52;;;;;;;3.08;2.22;;;20.10;95.80;;;;;;5034247;28;20036;-33
2023/06/16 05:29:17;;;;;;;2.78;2.17;;;20.10;95.80;;;;;;5016314;28;20032;-33
2023/06/16 05:31:43;;;;;;;4.43;2.60;;;20.00;95.80;;;;;;5033607;28;20111;-39
2023/06/16 05:34:09;;;;;;;3.42;2.30;;;20.10;95.80;;;;;;5033778;28;20021;-38
2023/06/16 05:36:35;;;;;;;5.20;3.00;;;20.10;95.80;;;;;;5034457;28;20129;-38
2023/06/16 05:39:07;;;;;;;4.97;2.47;;;20.10;96.20;;;;;;5032802;28;20030;-40
2023/06/16 05:41:33;;;;;;;2.67;2.22;;;20.10;95.80;;;;;;5033418;28;20366;-37
2023/06/16 05:43:59;;;;;;;2.85;2.45;;;20.10;95.80;;;;;;5033537;28;20029;-39
2023/06/16 05:46:25;;;;;;;3.35;2.20;;;20.10;95.80;;;;;;5033430;28;20075;-34
2023/06/16 05:48:50;;;;;;;3.88;2.30;;;20.10;95.80;;;;;;5033261;28;20018;-36
2023/06/16 05:51:16;;;;;;;3.05;2.40;;;20.10;95.80;;;;;;5033458;28;20531;-42
2023/06/16 05:53:42;;;;;;;2.65;2.40;;;20.10;95.80;;;;;;5017667;28;20022;-37
2023/06/16 05:56:08;;;;;;;3.88;2.60;;;20.10;95.80;;;;;;5033309;28;20080;-40
2023/06/16 05:58:35;;;;;;;5.35;2.40;;;20.10;95.80;;;;;;5033587;28;20025;-36
2023/06/16 06:01:03;;;;;;;3.22;2.30;;;20.10;95.80;;;;;;5033027;28;20053;-37
2023/06/16 06:03:28;;;;;;;3.10;2.80;;;20.10;95.90;;;;;;5015206;28;20436;-38
2023/06/16 06:05:56;;;;;;;3.20;2.42;;;20.10;95.90;;;;;;5033785;28;20025;-34
2023/06/16 06:08:26;;;;;;;2.60;2.15;;;20.10;95.90;;;;;;5032923;28;20040;-37
2023/06/16 06:10:52;;;;;;;3.20;2.30;;;20.10;95.90;;;;;;5033228;28;20041;-34
2023/06/16 06:13:18;;;;;;;3.65;2.25;;;20.10;95.90;;;;;;5033281;28;20020;-33
2023/06/16 06:15:44;;;;;;;3.53;2.42;;;20.10;95.90;;;;;;5032904;28;20033;-40
2023/06/16 06:18:10;;;;;;;2.78;2.35;;;20.10;96.00;;;;;;5032686;28;20022;-40
2023/06/16 06:20:38;;;;;;;2.95;2.42;;;20.10;96.00;;;;;;5032616;28;20033;-35
2023/06/16 06:23:04;;;;;;;3.88;2.50;;;20.10;96.00;;;;;;5033250;28;20028;-37
2023/06/16 06:25:30;;;;;;;2.92;2.63;;;20.10;96.00;;;;;;5032663;28;20034;-34
2023/06/16 06:27:56;;;;;;;2.80;2.53;;;20.10;96.10;;;;;;5015471;28;20018;-36
2023/06/16 06:30:21;;;;;;;2.60;2.05;;;20.10;96.10;;;;;;5033370;28;20113;-36
2023/06/16 06:32:47;;;;;;;2.70;2.33;;;20.10;96.10;;;;;;5032563;28;20025;-42
2023/06/16 06:35:13;;;;;;;2.38;2.10;;;20.10;96.10;;;;;;5033129;28;20033;-37
2023/06/16 06:37:38;;;;;;;2.67;2.20;;;20.10;96.10;;;;;;5032518;28;20037;-34
2023/06/16 06:40:05;;;;;;;2.95;2.33;;;20.10;96.10;;;;;;5032359;28;20034;-35
2023/06/16 06:42:30;;;;;;;2.60;2.30;;;20.10;96.10;;;;;;5033054;28;20033;-38
2023/06/16 06:44:56;;;;;;;3.63;2.33;;;20.10;96.00;;;;;;5032285;28;20040;-39
2023/06/16 06:47:22;;;;;;;3.60;2.65;;;20.10;96.00;;;;;;5032123;28;20087;-38
2023/06/16 06:49:49;;;;;;;4.82;2.45;;;20.10;96.00;;;;;;5031999;28;20401;-40
2023/06/16 06:52:15;;;;;;;3.20;2.28;;;20.10;96.00;;;;;;5032120;28;20087;-38
2023/06/16 06:54:41;;;;;;;2.97;2.40;;;20.20;96.10;;;;;;5032207;28;20018;-36
2023/06/16 06:57:07;;;;;;;2.35;1.92;;;20.20;96.00;;;;;;5032009;28;20083;-35
2023/06/16 06:59:33;;;;;;;2.40;2.20;;;20.20;96.00;;;;;;5032087;28;20104;-38
2023/06/16 07:01:58;;;;;;;2.50;2.30;;;20.20;96.00;;;;;;5032185;28;20240;-41
2023/06/16 07:04:25;;;;;;;3.25;2.17;;;20.20;96.00;;;;;;5032037;28;20028;-38
2023/06/16 07:06:51;;;;;;;2.90;2.20;;;20.20;96.00;;;;;;5031715;28;20103;-38
2023/06/16 07:09:17;;;;;;;2.47;2.20;;;20.20;96.00;;;;;;5033103;28;20491;-37
2023/06/16 07:11:43;;;;;;;2.72;2.13;;;20.20;96.00;;;;;;5031677;28;20029;-36
2023/06/16 07:14:08;;;;;;;3.53;2.25;;;20.20;96.00;;;;;;5031939;28;20021;-37
2023/06/16 07:16:34;;;;;;;3.33;2.30;;;20.20;96.00;;;;;;5032498;28;20036;-34
2023/06/16 07:19:01;;;;;;;3.15;2.08;;;20.20;96.00;;;;;;5032190;28;20027;-34
2023/06/16 07:21:27;;;;;;;3.10;2.00;;;20.20;96.00;;;;;;5031949;28;20028;-42
2023/06/16 07:23:53;;;;;;;2.30;2.00;;;20.20;96.00;;;;;;5031667;28;20018;-36
2023/06/16 07:26:19;;;;;;;4.57;1.92;;;20.20;96.00;;;;;;5033349;28;20117;-34
2023/06/16 07:28:45;;;;;;;2.50;2.30;;;20.20;96.00;;;;;;5031466;28;20045;-35
2023/06/16 07:31:10;;;;;;;2.33;2.00;;;20.20;96.00;;;;;;5031799;28;20028;-39
2023/06/16 07:33:36;;;;;;;3.00;2.47;;;20.20;95.90;;;;;;5031527;28;20017;-39
2023/06/16 07:36:02;;;;;;;2.60;2.10;;;20.20;96.00;;;;;;5031515;28;20030;-39
2023/06/16 07:38:28;;;;;;;2.25;2.05;;;20.20;96.00;;;;;;5031367;28;20029;-34
2023/06/16 07:40:53;;;;;;;5.68;2.40;;;20.20;96.00;;;;;;5031284;28;20098;-37
2023/06/16 07:43:21;;;;;;;5.75;3.13;;;20.20;95.50;;;;;;5031893;28;20132;-33
2023/06/16 07:45:46;;;;;;;6.97;3.17;;;20.30;94.30;;;;;;5031234;28;20034;-37
2023/06/16 07:48:13;;;;;;;6.13;3.58;;;20.40;94.30;;;;;;5031720;28;20018;-33
2023/06/16 07:50:39;;;;;;;7.43;3.30;;;20.40;94.50;;;;;;5031127;28;20702;-38
2023/06/16 07:53:05;;;;;;;7.38;3.15;;;20.40;94.60;;;;;;5031456;28;20045;-35
2023/06/16 07:55:30;;;;;;;7.15;3.42;;;20.40;94.60;;;;;;5031617;28;20512;-35
2023/06/16 07:57:56;;;;;;;5.22;3.40;;;20.30;94.60;;;;;;5031041;28;20033;-36
2023/06/16 08:00:22;;;;;;;5.63;3.67;;;20.30;94.70;;;;;;5030288;28;20034;-35
2023/06/16 08:02:47;;;;;;;4.07;3.20;;;20.30;94.70;;;;;;5031203;28;20041;-39
2023/06/16 08:05:16;;;;;;;7.55;3.45;;;20.30;94.70;;;;;;5031108;28;20435;-36
2023/06/16 08:07:43;;;;;;;4.97;3.03;;;20.30;94.80;;;;;;5030947;28;20025;-37
2023/06/16 08:10:09;;;;;;;4.47;3.60;;;20.30;94.80;;;;;;5031798;28;20097;-38
2023/06/16 08:12:35;;;;;;;3.40;2.80;;;20.40;94.90;;;;;;5031029;28;20030;-39
2023/06/16 08:15:02;;;;;;;5.07;3.03;;;20.40;94.90;;;;;;5031020;28;20144;-38
2023/06/16 08:17:27;;;;;;;4.85;3.15;;;20.30;94.90;;;;;;5031481;28;20036;-36
2023/06/16 08:19:53;;;;;;;7.20;3.50;;;20.40;94.90;;;;;;5031008;28;20428;-35
2023/06/16 08:22:19;;;;;;;7.10;3.10;;;20.40;94.90;;;;;;5031537;28;20464;-33
2023/06/16 08:24:45;;;;;;;6.07;3.15;;;20.30;94.90;;;;;;5031203;28;20021;-36
2023/06/16 08:27:11;;;;;;;4.55;3.10;;;20.40;95.20;;;;;;5031282;28;20033;-36
2023/06/16 08:29:37;;;;;;;3.53;3.00;;;20.30;94.80;;;;;;5030928;28;20039;-38
2023/06/16 08:32:03;;;;;;;4.53;2.80;;;20.30;94.90;;;;;;5030954;28;20025;-36
2023/06/16 08:34:29;;;;;;;4.85;3.00;;;20.40;94.90;;;;;;5030926;28;20542;-35
2023/06/16 08:36:55;;;;;;;4.60;3.00;;;20.30;94.90;;;;;;5030860;28;20496;-35
2023/06/16 08:39:21;;;;;;;4.78;2.90;;;20.40;94.90;;;;;;5030878;28;20060;-36
2023/06/16 08:41:49;;;;;;;3.42;2.53;;;20.40;94.90;;;;;;5030990;28;20078;-36
2023/06/16 08:44:18;;;;;;;4.60;3.03;;;20.40;94.90;;;;;;5030845;28;20176;-39
2023/06/16 08:46:44;;;;;;;4.97;3.00;;;20.30;94.80;;;;;;5030686;28;20026;-35
2023/06/16 08:49:14;;;;;;;3.63;2.80;;;20.40;94.90;;;;;;5030831;28;20527;-34
2023/06/16 08:51:52;;;;;;;5.88;2.65;;;20.40;94.90;;;;;;5030626;28;20111;-33
2023/06/16 08:54:25;;;;;;;4.53;2.60;;;20.40;94.90;;;;;;5030871;28;20075;-36
2023/06/16 08:56:51;;;;;;;3.45;2.65;;;20.40;94.90;;;;;;5031656;28;20022;-36
2023/06/16 08:59:19;;;;;;;4.43;2.70;;;20.40;95.00;;;;;;5030685;28;20044;-36
2023/06/16 09:01:46;;;;;;;4.30;2.60;;;20.40;94.90;;;;;;5031593;28;20040;-38
2023/06/16 09:04:13;;;;;;;3.67;2.55;;;20.40;94.90;;;;;;5031034;28;20076;-38
2023/06/16 09:06:47;;;;;;;4.00;2.65;;;20.40;95.00;;;;;;5030393;28;20025;-36
2023/06/16 09:09:14;;;;;;;5.20;2.80;;;20.40;95.00;;;;;;5031223;28;20476;-36
2023/06/16 09:11:39;;;;;;;4.95;2.65;;;20.40;95.00;;;;;;5030909;28;20087;-37
2023/06/16 09:14:11;;;;;;;5.95;2.78;;;20.40;95.00;;;;;;5034152;28;20029;-38
2023/06/16 09:16:39;;;;;;;4.00;2.70;;;20.40;95.00;;;;;;5034015;28;20547;-38
2023/06/16 09:19:08;;;;;;;3.60;2.60;;;20.40;95.00;;;;;;5034012;28;20029;-36
2023/06/16 09:21:35;;;;;;;3.28;2.50;;;20.40;95.00;;;;;;5033887;28;20045;-36
2023/06/16 09:24:01;;;;;;;5.63;2.83;;;20.40;95.00;;;;;;5034069;28;20083;-37
2023/06/16 09:26:35;;;;;;;4.18;2.42;;;20.40;95.00;;;;;;5034344;28;20087;-38
2023/06/16 09:29:02;;;;;;;;;;;20.40;95.00;;;;;;5034274;28;20105;-36
2023/06/16 09:31:28;;;;;;;2.97;2.40;;;20.40;95.00;;;;;;5034842;28;20431;-33
2023/06/16 09:34:05;;;;;;;3.45;2.67;;;20.50;95.00;;;;;;5033685;28;20017;-38
2023/06/16 09:36:30;;;;;;;3.22;2.60;;;20.50;95.00;;;;;;5033745;28;20457;-36
2023/06/16 09:38:56;;;;;;;5.53;2.50;;;20.50;94.90;;;;;;5033944;28;20025;-35
2023/06/16 09:41:22;;;;;;;3.47;2.50;;;20.50;94.90;;;;;;5033713;28;20071;-37
2023/06/16 09:43:48;;;;;;;3.25;2.42;;;20.50;94.90;;;;;;5034441;28;20021;-35
2023/06/16 09:46:14;;;;;;;3.67;2.53;;;20.50;95.00;;;;;;5033863;28;20477;-34
2023/06/16 09:48:50;;;;;;;3.08;2.38;;;20.50;94.90;;;;;;5033387;28;20144;-35
2023/06/16 09:51:21;;;;;;;4.22;2.33;;;20.50;94.90;;;;;;5033251;28;20028;-36
2023/06/16 09:53:48;;;;;;;2.72;2.17;;;20.50;94.90;;;;;;5033632;28;20226;-36
2023/06/16 09:56:17;;;;;;;3.97;2.67;;;20.50;94.90;;;;;;5033336;28;20057;-36
2023/06/16 09:58:44;;;;;;;2.78;2.15;;;20.50;94.90;;;;;;5033276;28;20496;-33
2023/06/16 10:01:10;;;;;;;2.63;2.22;;;20.50;94.90;;;;;;5033193;28;20410;-34
2023/06/16 10:03:47;;;;;;;4.25;2.53;;;20.50;94.90;;;;;;5033178;28;20033;-34
2023/06/16 10:06:19;;;;;;;4.13;2.30;;;20.50;94.90;;;;;;5015350;28;20108;-35
2023/06/16 10:08:47;;;;;;;5.28;2.50;;;20.50;94.90;;;;;;5032931;28;20546;-33
2023/06/16 10:11:15;;;;;;;2.85;2.22;;;20.60;94.90;;;;;;5033529;28;20026;-36
2023/06/16 10:13:50;;;;;;;4.65;2.35;;;20.60;94.90;;;;;;5032974;28;20034;-39
2023/06/16 10:16:17;;;;;;;3.33;2.20;;;20.50;94.90;;;;;;5033031;28;20036;-38
2023/06/16 10:18:44;;;;;;;3.05;2.53;;;20.60;94.90;;;;;;5033101;28;20025;-36
2023/06/16 10:21:11;;;;;;;2.83;2.20;;;20.60;94.90;;;;;;5033488;28;20033;-35
2023/06/16 10:23:37;;;;;;;2.83;2.17;;;20.60;94.90;;;;;;5032533;28;20052;-39
2023/06/16 10:26:05;;;;;;;3.80;2.38;;;20.60;94.90;;;;;;5032591;28;20477;-35
2023/06/16 10:28:32;;;;;;;3.63;2.63;;;20.60;94.80;;;;;;5032797;28;20025;-38
2023/06/16 10:30:59;;;;;;;3.55;2.38;;;20.60;94.90;;;;;;5033194;28;20014;-35
2023/06/16 10:33:26;;;;;;;3.10;2.10;;;20.60;94.90;;;;;;5032657;28;20098;-36
2023/06/16 10:35:59;;;;;;;5.00;2.40;;;20.60;94.90;;;;;;5034149;28;20032;-36
2023/06/16 10:38:35;;;;;;;3.83;2.35;;;20.60;94.90;;;;;;5032299;28;20031;-36
2023/06/16 10:41:02;;;;;;;3.00;2.17;;;20.60;94.90;;;;;;5032294;28;20030;-36
2023/06/16 10:43:28;;;;;;;2.92;2.25;;;20.60;94.80;;;;;;5032454;28;20021;-36
2023/06/16 10:46:16;;;;;;;3.97;2.50;;;20.60;94.80;;;;;;5033280;28;20030;-39
2023/06/16 10:49:08;;;;;;;2.75;2.15;;;20.60;94.90;;;;;;5032801;28;20033;-37
2023/06/16 10:51:50;;;;;;;2.65;1.90;;;20.70;94.90;;;;;;5032344;28;20014;-36
2023/06/16 10:54:37;;;;;;;3.28;2.50;;;20.70;94.90;;;;;;5032287;28;20033;-36
2023/06/16 10:57:07;;;;;;;2.28;1.98;;;20.70;94.90;;;;;;5032633;28;20033;-35
2023/06/16 10:59:56;;;;;;;3.53;2.28;;;20.70;94.90;;;;;;5032492;28;20092;-36
2023/06/16 11:02:27;;;;;;;3.05;2.17;;;20.70;94.90;;;;;;5032026;28;20518;-38
2023/06/16 11:05:08;;;;;;;2.80;2.17;;;20.70;94.80;;;;;;5031958;28;20155;-36
2023/06/16 11:08:06;;;;;;;5.60;2.80;;;20.70;94.80;;;;;;5032255;28;20029;-34
2023/06/16 11:10:48;;;;;;;6.63;3.13;;;20.80;91.90;;;;;;5011176;28;20052;-36
2023/06/16 11:13:14;;;;;;;12.38;2.97;;;20.90;91.10;;;;;;5032265;28;20013;-39
2023/06/16 11:15:42;;;;;;;6.45;3.35;;;21.00;91.10;;;;;;5032097;28;20036;-40
2023/06/16 11:18:08;;;;;;;5.50;3.00;;;21.10;91.50;;;;;;5033243;28;20029;-39
2023/06/16 11:20:37;;;;;;;5.82;3.00;;;21.10;91.30;;;;;;5032515;28;20496;-35
2023/06/16 11:23:03;;;;;;;4.35;2.65;;;21.10;91.40;;;;;;5031712;28;20087;-36
2023/06/16 11:25:29;;;;;;;4.15;2.88;;;21.10;91.50;;;;;;5031607;28;20029;-40
2023/06/16 11:27:55;;;;;;;3.50;2.85;;;21.10;91.90;;;;;;5032787;28;20029;-41
2023/06/16 11:30:21;;;;;;;6.43;2.95;;;21.20;91.70;;;;;;5031730;28;20108;-37
2023/06/16 11:32:48;;;;;;;4.43;2.92;;;21.20;91.70;;;;;;5031522;28;20370;-37
2023/06/16 11:35:14;;;;;;;3.60;2.80;;;21.20;91.90;;;;;;5030728;28;20110;-37
2023/06/16 11:37:51;;;;;;;4.82;2.90;;;21.20;91.90;;;;;;5031292;28;20477;-33
2023/06/16 11:40:22;;;;;;;3.42;2.67;;;21.20;91.90;;;;;;5032168;28;20563;-37
2023/06/16 11:43:04;;;;;;;5.07;2.92;;;21.20;92.00;;;;;;5031773;28;20079;-37
2023/06/16 11:45:36;;;;;;;3.35;2.63;;;21.20;92.10;;;;;;5032134;28;20037;-33
2023/06/16 11:48:03;;;;;;;4.38;2.63;;;21.20;92.20;;;;;;5031321;28;20089;-40
2023/06/16 11:50:29;;;;;;;7.65;2.70;;;21.20;92.20;;;;;;5031172;28;20518;-37
2023/06/16 11:52:56;;;;;;;4.60;2.80;;;21.20;92.30;;;;;;5031271;28;20029;-35
2023/06/16 11:55:22;;;;;;;3.35;2.42;;;21.20;92.30;;;;;;5031355;28;20026;-34
2023/06/16 11:57:48;;;;;;;4.43;2.67;;;21.20;92.30;;;;;;5031027;28;20049;-41
2023/06/16 12:00:15;;;;;;;3.80;2.88;;;21.30;92.40;;;;;;5031329;28;20060;-34
2023/06/16 12:02:44;;;;;;;3.85;2.55;;;21.30;92.40;;;;;;5031853;28;20030;-35
2023/06/16 12:05:17;;;;;;;4.68;2.50;;;21.30;92.50;;;;;;5031126;28;20037;-39
2023/06/16 12:07:43;;;;;;;3.88;2.40;;;21.30;92.50;;;;;;5031297;28;20413;-40
2023/06/16 12:10:09;;;;;;;3.30;2.67;;;21.30;92.50;;;;;;5030803;28;20025;-38
2023/06/16 12:12:38;;;;;;;3.30;2.17;;;21.20;92.60;;;;;;5031122;28;20034;-34
2023/06/16 12:15:04;;;;;;;3.72;2.63;;;21.30;92.90;;;;;;5031667;28;20472;-37
2023/06/16 12:17:33;;;;;;;4.70;3.03;;;21.30;92.60;;;;;;5031076;28;20459;-36
2023/06/16 12:20:01;;;;;;;3.08;2.50;;;21.30;92.70;;;;;;5031367;28;20022;-41
2023/06/16 12:22:35;;;;;;;2.90;2.50;;;21.30;92.70;;;;;;5032029;28;20029;-37
2023/06/16 12:25:00;;;;;;;3.63;2.40;;;21.30;92.70;;;;;;5031314;28;20102;-36
2023/06/16 12:27:26;;;;;;;3.42;2.60;;;21.20;92.80;;;;;;5031956;28;20033;-34
2023/06/16 12:29:58;;;;;;;2.95;2.30;;;21.30;92.80;;;;;;5030802;28;20026;-37
2023/06/16 12:32:32;;;;;;;3.63;2.85;;;21.30;92.80;;;;;;5031392;28;20515;-39
2023/06/16 12:34:58;;;;;;;4.22;2.60;;;21.30;92.80;;;;;;5030934;28;20021;-37
2023/06/16 12:37:30;;;;;;;2.90;2.40;;;21.30;92.80;;;;;;5030805;28;20112;-37
2023/06/16 12:39:57;;;;;;;3.42;2.45;;;21.30;92.90;;;;;;5032535;28;20051;-34
2023/06/16 12:42:27;;;;;;;5.97;2.58;;;21.30;92.90;;;;;;5032696;28;20026;-34
2023/06/16 12:44:53;;;;;;;2.42;2.17;;;21.30;92.90;;;;;;5030856;28;20184;-36
2023/06/16 12:47:21;;;;;;;4.43;2.70;;;21.30;93.30;;;;;;5033126;28;20044;-40
2023/06/16 12:49:47;;;;;;;2.60;2.30;;;21.30;93.00;;;;;;5034403;28;20110;-35